»·PEaware :: N8092H KBUR-KLAS

N8092H :: KBUR-KLAS

FLIGHT INFORMATION

Flight Status: Arrived
Operator: Privately registered:
United States
More flights under this callsign
Pilot: Mark B. (9455)
Aircraft: CESSNA 172 SKYHAWK
(C172)
More flights by this aircraft type
Origin: KBUR Bob Hope-Burbank
United States
Destination: KLAS McCarran Intl
United States
More flights between these airports :: More routes between these airports
Route: +VNY3 DAG CRESO3
File this flight plan on PilotEdge
Remarks: I5
Altitude:
(Current/Filed)
7,000ft
Speed:
(Current/Filed)
115kts
Departed: 11-Feb-17 01:11 PM
Arrived: 11-Feb-17 02:56 PM
Distance/Time
Traveled:
194nm/1:45
Distance/Time
To Go:
Arrived

Flight Plot

Page will automatically refresh every two minutes.


Map Options




Map Legend


Flown Route
Filed Route
Departure Airport
Arrival Airport
Navaid (VOR, NDB)
Fix

Horizontal Profiles

Position Reports

Time Latitude Longitude Heading Altitude Ground
Speed
11-Feb-17 12:42 34.200197 -118.358744 263 781ft 0kts
11-Feb-17 12:43 34.200197 -118.358744 263 781ft 0kts
11-Feb-17 12:44 34.200197 -118.358744 263 781ft 0kts
11-Feb-17 12:45 34.200197 -118.358744 263 781ft 0kts
11-Feb-17 12:46 34.200197 -118.358744 263 781ft 0kts
11-Feb-17 12:47 34.200197 -118.358744 263 781ft 0kts
11-Feb-17 12:48 34.200197 -118.358744 263 781ft 0kts
11-Feb-17 12:49 34.200197 -118.358744 263 781ft 0kts
11-Feb-17 12:50 34.200197 -118.358744 263 781ft 0kts
11-Feb-17 12:51 34.200197 -118.358744 263 781ft 0kts
11-Feb-17 12:52 34.200172 -118.358794 212 781ft 1kts
11-Feb-17 12:53 34.202105 -118.358786 348 781ft 30kts
11-Feb-17 12:54 34.210014 -118.360987 348 781ft 25kts
11-Feb-17 12:55 34.212014 -118.361392 25 781ft 0kts
11-Feb-17 12:56 34.212014 -118.361392 25 781ft 0kts
11-Feb-17 12:57 34.212014 -118.361392 25 781ft 0kts
11-Feb-17 12:58 34.212014 -118.361392 25 781ft 0kts
11-Feb-17 12:59 34.212014 -118.361392 25 781ft 0kts
11-Feb-17 13:00 34.212014 -118.361392 25 781ft 0kts
11-Feb-17 13:01 34.212014 -118.361392 25 781ft 0kts
11-Feb-17 13:02 34.212029 -118.361384 24 781ft 0kts
11-Feb-17 13:03 34.212029 -118.361384 24 781ft 0kts
11-Feb-17 13:09 34.200211 -118.358739 263 781ft 0kts
11-Feb-17 13:10 34.198835 -118.358312 88 781ft 15kts
11-Feb-17 13:11 34.209093 -118.360717 346 781ft 42kts
11-Feb-17 13:12 34.211760 -118.361415 34 781ft 0kts
11-Feb-17 13:13 34.211760 -118.361415 34 781ft 0kts
11-Feb-17 13:14 34.211760 -118.361415 34 781ft 0kts
11-Feb-17 13:15 34.201822 -118.357429 176 1338ft 75kts
11-Feb-17 13:16 34.184907 -118.373378 224 2861ft 78kts
11-Feb-17 13:17 34.171955 -118.394231 283 4263ft 86kts
11-Feb-17 13:18 34.192959 -118.402698 352 5659ft 83kts
11-Feb-17 13:19 34.216553 -118.406886 350 6904ft 90kts
11-Feb-17 13:20 34.242756 -118.411227 351 8001ft 103kts
11-Feb-17 13:21 34.271775 -118.416664 351 8988ft 109kts
11-Feb-17 13:22 34.301346 -118.422018 350 9964ft 109kts
11-Feb-17 13:23 34.331129 -118.426682 352 10878ft 110kts
11-Feb-17 13:24 34.367022 -118.431902 354 10913ft 142kts
11-Feb-17 13:25 34.406436 -118.436750 354 10925ft 143kts
11-Feb-17 13:26 34.445610 -118.441993 352 10982ft 140kts
11-Feb-17 13:27 34.482506 -118.434163 55 10930ft 145kts
11-Feb-17 13:28 34.498383 -118.389940 66 10940ft 143kts
11-Feb-17 13:29 34.514059 -118.345573 65 10908ft 144kts
11-Feb-17 13:30 34.531065 -118.302465 64 10972ft 142kts
11-Feb-17 13:31 34.546970 -118.258441 65 10979ft 143kts
11-Feb-17 13:32 34.565599 -118.216078 60 10902ft 146kts
11-Feb-17 13:33 34.584368 -118.173199 61 10890ft 145kts
11-Feb-17 13:34 34.603254 -118.130646 59 10902ft 142kts
11-Feb-17 13:35 34.622009 -118.088011 61 10919ft 140kts
11-Feb-17 13:36 34.634149 -118.042564 81 10874ft 143kts
11-Feb-17 13:37 34.638964 -117.994903 83 10901ft 141kts
11-Feb-17 13:38 34.643482 -117.946834 80 10887ft 142kts
11-Feb-17 13:39 34.649834 -117.899546 81 10919ft 141kts
11-Feb-17 13:40 34.654011 -117.851563 84 10873ft 144kts
11-Feb-17 13:41 34.659445 -117.803885 80 10903ft 143kts
11-Feb-17 13:42 34.666494 -117.756238 74 10846ft 145kts
11-Feb-17 13:43 34.678153 -117.710234 71 10909ft 141kts
11-Feb-17 13:44 34.690489 -117.664403 71 10906ft 142kts
11-Feb-17 13:45 34.701627 -117.618192 72 10901ft 143kts
11-Feb-17 13:46 34.712948 -117.571799 72 10867ft 144kts
11-Feb-17 13:47 34.725232 -117.526103 74 10934ft 140kts
11-Feb-17 13:48 34.737958 -117.480386 65 10900ft 142kts
11-Feb-17 13:49 34.751612 -117.435008 74 10859ft 145kts
11-Feb-17 13:50 34.760813 -117.387992 77 10875ft 142kts
11-Feb-17 13:51 34.771422 -117.341448 72 10867ft 144kts
11-Feb-17 13:52 34.784126 -117.296004 72 10883ft 145kts
11-Feb-17 13:53 34.795219 -117.249515 73 10894ft 143kts
11-Feb-17 13:54 34.806352 -117.203113 72 10915ft 141kts
11-Feb-17 13:55 34.817714 -117.156877 73 10912ft 141kts
11-Feb-17 13:56 34.829987 -117.110964 70 10874ft 144kts
11-Feb-17 13:57 34.842351 -117.064741 70 10846ft 144kts
11-Feb-17 13:58 34.853860 -117.018595 73 10887ft 143kts
11-Feb-17 13:59 34.864992 -116.972374 71 10901ft 142kts
11-Feb-17 14:00 34.876902 -116.926190 74 10895ft 143kts
11-Feb-17 14:01 34.886727 -116.879514 70 10898ft 142kts
11-Feb-17 14:02 34.899482 -116.833547 69 10854ft 145kts
11-Feb-17 14:03 34.912486 -116.787928 73 10859ft 145kts
11-Feb-17 14:04 34.923309 -116.741072 73 10862ft 143kts
11-Feb-17 14:05 34.935038 -116.695272 72 10907ft 143kts
11-Feb-17 14:06 34.945784 -116.648443 76 10847ft 145kts
11-Feb-17 14:07 34.956789 -116.601946 73 10897ft 142kts
11-Feb-17 14:08 34.974771 -116.560081 46 10892ft 143kts
11-Feb-17 14:09 34.992389 -116.517031 64 10894ft 143kts
11-Feb-17 14:10 35.010164 -116.473669 58 10855ft 144kts
11-Feb-17 14:11 35.029069 -116.431115 65 10918ft 140kts
11-Feb-17 14:12 35.046155 -116.387657 63 10891ft 143kts
11-Feb-17 14:13 35.063305 -116.343782 63 10905ft 142kts
11-Feb-17 14:14 35.080758 -116.300355 59 10876ft 144kts
11-Feb-17 14:15 35.102417 -116.259324 58 10867ft 141kts
11-Feb-17 14:16 35.120311 -116.216207 64 10907ft 140kts
11-Feb-17 14:17 35.139157 -116.173622 59 10891ft 143kts
11-Feb-17 14:18 35.158388 -116.131001 61 10877ft 142kts
11-Feb-17 14:19 35.174891 -116.096087 57 10924ft 141kts
11-Feb-17 14:20 35.194412 -116.054133 62 10926ft 142kts
11-Feb-17 14:21 35.213245 -116.011632 59 10938ft 141kts
11-Feb-17 14:22 35.232070 -115.969018 63 10935ft 142kts
11-Feb-17 14:23 35.250459 -115.926244 60 10944ft 142kts
11-Feb-17 14:24 35.268714 -115.883639 63 10949ft 143kts
11-Feb-17 14:25 35.286594 -115.839943 63 10978ft 137kts
11-Feb-17 14:26 35.305179 -115.797731 61 10975ft 142kts
11-Feb-17 14:27 35.330149 -115.759619 47 10946ft 139kts
11-Feb-17 14:28 35.357537 -115.721791 46 10493ft 153kts
11-Feb-17 14:29 35.387344 -115.683889 46 9958ft 156kts
11-Feb-17 14:30 35.414589 -115.646115 46 9930ft 144kts
11-Feb-17 14:31 35.442531 -115.611452 46 9921ft 143kts
11-Feb-17 14:32 35.468874 -115.575049 50 9889ft 145kts
11-Feb-17 14:33 35.497004 -115.540231 41 9865ft 146kts
11-Feb-17 14:34 35.523749 -115.504499 48 9928ft 142kts
11-Feb-17 14:35 35.549297 -115.467362 51 9958ft 141kts
11-Feb-17 14:36 35.575045 -115.430283 46 9943ft 139kts
11-Feb-17 14:37 35.602870 -115.395617 43 9868ft 144kts
11-Feb-17 14:38 35.630580 -115.361297 49 9968ft 140kts
11-Feb-17 14:39 35.655705 -115.323313 50 9947ft 141kts
11-Feb-17 14:40 35.682779 -115.287809 47 9953ft 142kts
11-Feb-17 14:41 35.709955 -115.252483 35 10006ft 139kts
11-Feb-17 14:42 35.745897 -115.225441 31 9386ft 157kts
11-Feb-17 14:43 35.783366 -115.197486 29 8755ft 155kts
11-Feb-17 14:44 35.820610 -115.169403 30 8052ft 159kts
11-Feb-17 14:45 35.857799 -115.141215 31 7438ft 157kts
11-Feb-17 14:46 35.895136 -115.113825 29 6928ft 151kts
11-Feb-17 14:47 35.930148 -115.088234 30 6904ft 145kts
11-Feb-17 14:48 35.964264 -115.062107 31 6935ft 143kts
11-Feb-17 14:49 36.000205 -115.036703 29 6503ft 156kts
11-Feb-17 14:50 36.036914 -115.008188 31 5617ft 147kts
11-Feb-17 14:51 36.071417 -114.995520 339 4654ft 128kts
11-Feb-17 14:52 36.080377 -115.031462 252 3497ft 109kts
11-Feb-17 14:53 36.073934 -115.064031 265 2969ft 88kts
11-Feb-17 14:54 36.073757 -115.089452 269 2814ft 70kts
11-Feb-17 14:55 36.073772 -115.112204 268 2441ft 63kts
11-Feb-17 14:56 36.073592 -115.131516 274 2145ft 33kts
11-Feb-17 14:57 36.073630 -115.139978 269 2145ft 23kts
11-Feb-17 14:58 36.074432 -115.145318 294 2145ft 8kts
11-Feb-17 14:59 36.074673 -115.145916 297 2145ft 0kts

Navigation Log

Ident Type
Flight plan parsing failed, navigation log unavailable